createdAt,value
2022-09-06T00:01:29.258Z,18.85
2022-09-06T00:03:58.516Z,18.87
2022-09-06T00:06:26.388Z,18.91
2022-09-06T00:08:54.244Z,18.90
2022-09-06T00:11:22.531Z,18.86
2022-09-06T00:13:50.560Z,18.89
2022-09-06T00:16:20.880Z,18.84
2022-09-06T00:18:48.880Z,18.81
2022-09-06T00:21:21.263Z,18.75
2022-09-06T00:23:49.167Z,18.73
2022-09-06T00:26:17.310Z,18.63
2022-09-06T00:28:45.717Z,18.60
2022-09-06T00:31:15.962Z,18.57
2022-09-06T00:33:44.129Z,18.50
2022-09-06T00:36:13.486Z,18.44
2022-09-06T00:38:43.454Z,18.48
2022-09-06T00:41:14.232Z,18.49
2022-09-06T00:43:42.728Z,18.48
2022-09-06T00:46:13.267Z,18.43
2022-09-06T00:48:42.314Z,18.33
2022-09-06T00:51:13.681Z,18.37
2022-09-06T00:53:43.040Z,18.48
2022-09-06T00:56:11.334Z,18.61
2022-09-06T00:58:39.658Z,18.99
2022-09-06T01:01:08.050Z,19.05
2022-09-06T01:03:37.189Z,19.11
2022-09-06T01:06:15.994Z,19.14
2022-09-06T01:09:00.015Z,19.26
2022-09-06T01:11:57.348Z,19.33
2022-09-06T01:14:37.938Z,19.47
2022-09-06T01:17:17.695Z,19.42
2022-09-06T01:20:09.355Z,19.50
2022-09-06T01:22:58.493Z,19.47
2022-09-06T01:25:39.551Z,19.41
2022-09-06T01:28:28.941Z,19.29
2022-09-06T01:31:06.186Z,19.17
2022-09-06T01:33:42.527Z,19.19
2022-09-06T01:36:14.145Z,19.49
2022-09-06T01:38:42.338Z,19.54
2022-09-06T01:41:10.998Z,19.57
2022-09-06T01:43:43.470Z,19.45
2022-09-06T01:46:18.278Z,19.31
2022-09-06T01:49:05.788Z,19.28
2022-09-06T01:51:42.688Z,19.25
2022-09-06T01:54:27.330Z,19.12
2022-09-06T01:57:05.556Z,19.13
2022-09-06T01:59:58.639Z,19.10
2022-09-06T02:02:33.140Z,19.15
2022-09-06T02:05:04.797Z,19.10
2022-09-06T02:07:35.181Z,19.08
2022-09-06T02:10:09.449Z,19.15
2022-09-06T02:12:41.745Z,20.07
2022-09-06T02:15:15.651Z,20.63
2022-09-06T02:17:49.833Z,20.63
2022-09-06T02:20:21.677Z,20.80
2022-09-06T02:22:52.454Z,20.90
2022-09-06T02:25:25.640Z,20.89
2022-09-06T02:27:54.399Z,20.91
2022-09-06T02:30:24.113Z,20.97
2022-09-06T02:32:57.370Z,20.86
2022-09-06T02:35:25.492Z,20.91
2022-09-06T02:37:53.451Z,21.08
2022-09-06T02:40:21.610Z,21.27
2022-09-06T02:42:49.510Z,21.36
2022-09-06T02:45:17.420Z,21.38
2022-09-06T02:47:46.582Z,21.39
2022-09-06T02:50:15.320Z,21.39
2022-09-06T02:52:43.187Z,21.37
2022-09-06T02:55:11.300Z,21.32
2022-09-06T02:57:39.435Z,21.29
2022-09-06T03:00:08.524Z,21.30
2022-09-06T03:02:36.535Z,21.36
2022-09-06T03:05:06.621Z,21.51
2022-09-06T03:07:34.530Z,21.46
2022-09-06T03:10:02.494Z,21.40
2022-09-06T03:12:30.279Z,21.47
2022-09-06T03:14:58.212Z,21.47
2022-09-06T03:17:26.136Z,21.43
2022-09-06T03:19:54.351Z,21.55
2022-09-06T03:22:23.618Z,21.54
2022-09-06T03:24:51.767Z,21.47
2022-09-06T03:27:19.703Z,21.32
2022-09-06T03:29:48.042Z,21.24
2022-09-06T03:32:16.246Z,21.17
2022-09-06T03:34:44.131Z,21.24
2022-09-06T03:37:12.285Z,21.19
2022-09-06T03:39:41.751Z,21.09
2022-09-06T03:42:09.781Z,20.92
2022-09-06T03:44:37.872Z,20.90
2022-09-06T03:47:06.440Z,20.94
2022-09-06T03:49:34.367Z,20.91
2022-09-06T03:52:02.782Z,20.80
2022-09-06T03:54:30.851Z,20.62
2022-09-06T03:57:00.093Z,20.57
2022-09-06T03:59:28.004Z,20.57
2022-09-06T04:01:56.007Z,20.58
2022-09-06T04:04:23.994Z,20.61
2022-09-06T04:06:51.834Z,20.64
2022-09-06T04:09:19.790Z,20.81
2022-09-06T04:11:47.736Z,20.80
2022-09-06T04:14:17.061Z,20.72
2022-09-06T04:16:45.020Z,20.72
2022-09-06T04:19:13.039Z,20.60
2022-09-06T04:21:40.902Z,20.45
2022-09-06T04:24:09.008Z,20.44
2022-09-06T04:26:36.883Z,20.40
2022-09-06T04:29:05.015Z,20.29
2022-09-06T04:31:34.850Z,20.25
2022-09-06T04:34:02.751Z,20.17
2022-09-06T04:36:30.642Z,20.24
2022-09-06T04:38:58.503Z,20.21
2022-09-06T04:41:26.400Z,20.11
2022-09-06T04:43:54.399Z,20.02
2022-09-06T04:46:24.913Z,19.90
2022-09-06T04:48:55.465Z,19.79
2022-09-06T04:51:24.643Z,19.66
2022-09-06T04:53:52.786Z,19.53
2022-09-06T04:56:23.097Z,19.44
2022-09-06T04:58:53.762Z,19.44
2022-09-06T05:01:21.760Z,19.34
2022-09-06T05:03:52.175Z,19.17
2022-09-06T05:06:25.525Z,19.20
2022-09-06T05:08:53.839Z,19.04
2022-09-06T05:11:21.733Z,19.06
2022-09-06T05:16:18.310Z,18.86
2022-09-06T05:18:46.259Z,18.92
2022-09-06T05:21:14.198Z,18.81
2022-09-06T05:23:43.990Z,18.78
2022-09-06T05:26:12.084Z,18.73
2022-09-06T05:28:39.955Z,18.66
2022-09-06T05:31:10.695Z,18.68
2022-09-06T05:33:39.271Z,18.79
2022-09-06T05:36:08.186Z,18.75
2022-09-06T05:38:36.394Z,18.92
2022-09-06T05:41:06.032Z,18.90
2022-09-06T05:43:34.024Z,18.98
2022-09-06T05:46:02.135Z,19.13
2022-09-06T05:48:36.055Z,19.20
2022-09-06T05:51:07.007Z,19.30
2022-09-06T05:53:36.491Z,19.47
2022-09-06T05:56:07.017Z,19.47
2022-09-06T05:58:34.997Z,19.64
2022-09-06T06:01:08.054Z,19.77
2022-09-06T06:03:36.031Z,19.70
2022-09-06T06:06:03.973Z,19.82
2022-09-06T06:08:32.046Z,20.11
2022-09-06T06:11:01.403Z,20.16
2022-09-06T06:13:35.148Z,20.15
2022-09-06T06:16:04.423Z,20.23
2022-09-06T06:18:32.400Z,20.30
2022-09-06T06:21:12.308Z,20.34
2022-09-06T06:23:41.505Z,20.29
2022-09-06T06:26:10.937Z,20.28
2022-09-06T06:28:41.009Z,20.16
2022-09-06T06:31:12.127Z,20.24
2022-09-06T06:33:40.881Z,20.52
2022-09-06T06:36:21.723Z,20.65
2022-09-06T06:38:50.907Z,20.76
2022-09-06T06:41:21.314Z,20.67
2022-09-06T06:43:53.164Z,20.60
2022-09-06T06:46:22.265Z,20.56
2022-09-06T06:48:54.555Z,20.63
2022-09-06T06:51:25.677Z,20.56
2022-09-06T06:53:54.069Z,20.58
2022-09-06T06:56:24.774Z,20.61
2022-09-06T06:58:57.638Z,20.57
2022-09-06T07:01:27.412Z,20.56
2022-09-06T07:03:55.772Z,20.70
2022-09-06T07:09:12.729Z,21.00
2022-09-06T07:11:40.660Z,21.18
2022-09-06T07:14:09.971Z,21.55
2022-09-06T07:16:37.902Z,21.58
2022-09-06T07:19:05.994Z,21.49
2022-09-06T07:21:37.503Z,21.84
2022-09-06T07:24:09.246Z,22.20
2022-09-06T07:26:39.700Z,22.32
2022-09-06T07:29:09.804Z,22.30
2022-09-06T07:34:27.089Z,22.61
2022-09-06T07:36:55.121Z,22.61
2022-09-06T07:39:24.426Z,22.61
2022-09-06T07:41:52.372Z,22.92
2022-09-06T07:44:21.640Z,23.10
2022-09-06T07:46:50.033Z,22.88
2022-09-06T07:49:18.113Z,22.35
2022-09-06T07:51:46.025Z,22.36
2022-09-06T07:54:30.030Z,22.30
2022-09-06T07:56:58.608Z,22.86
2022-09-06T07:59:28.120Z,22.97
2022-09-06T08:01:56.121Z,22.95
2022-09-06T08:04:24.196Z,22.67
2022-09-06T08:09:41.578Z,22.89
2022-09-06T08:12:09.773Z,23.10
2022-09-06T08:14:39.199Z,23.43
2022-09-06T08:17:07.228Z,23.36
2022-09-06T08:19:35.512Z,23.57
2022-09-06T08:22:03.529Z,23.53
2022-09-06T08:24:31.765Z,23.49
2022-09-06T08:26:59.726Z,23.30
2022-09-06T08:29:27.904Z,23.50
2022-09-06T08:31:57.375Z,23.66
2022-09-06T08:34:25.466Z,23.80
2022-09-06T08:36:53.571Z,23.74
2022-09-06T08:39:21.820Z,23.82
2022-09-06T08:41:54.176Z,23.74
2022-09-06T08:47:15.859Z,24.08
2022-09-06T08:49:46.230Z,24.24
2022-09-06T08:53:06.222Z,24.32
2022-09-06T08:55:38.192Z,24.22
2022-09-06T08:58:29.055Z,24.33
2022-09-06T09:01:01.891Z,24.39
2022-09-06T09:03:34.262Z,24.52
2022-09-06T09:06:05.314Z,24.54
2022-09-06T09:08:40.845Z,24.45
2022-09-06T09:11:11.490Z,24.72
2022-09-06T09:13:44.801Z,25.04
2022-09-06T09:16:12.851Z,24.90
2022-09-06T09:18:45.567Z,24.82
2022-09-06T09:21:14.580Z,24.81
2022-09-06T09:23:42.588Z,25.01
2022-09-06T09:26:15.236Z,25.25
2022-09-06T09:29:04.857Z,25.44
2022-09-06T09:31:38.617Z,25.45
2022-09-06T09:34:12.416Z,25.48
2022-09-06T09:36:41.235Z,25.54
2022-09-06T09:39:13.033Z,25.45
2022-09-06T09:41:43.677Z,25.59
2022-09-06T09:44:18.514Z,25.51
2022-09-06T09:46:46.618Z,25.64
2022-09-06T09:49:28.958Z,25.80
2022-09-06T09:52:07.177Z,25.82
2022-09-06T09:54:38.507Z,25.81
2022-09-06T09:57:11.858Z,25.93
2022-09-06T09:59:45.383Z,25.88
2022-09-06T10:02:23.145Z,26.09
2022-09-06T10:04:54.936Z,26.04
2022-09-06T10:07:24.839Z,26.14
2022-09-06T10:10:00.290Z,26.16
2022-09-06T10:12:32.456Z,26.26
2022-09-06T10:15:02.488Z,26.27
2022-09-06T10:17:34.561Z,26.41
2022-09-06T10:20:08.673Z,26.60
2022-09-06T10:22:47.152Z,26.69
2022-09-06T10:25:49.701Z,26.46
2022-09-06T10:28:36.470Z,26.40
2022-09-06T10:31:31.783Z,26.57
2022-09-06T10:34:08.691Z,26.71
2022-09-06T10:36:40.831Z,26.65
2022-09-06T10:39:24.068Z,26.80
2022-09-06T10:42:10.112Z,26.65
2022-09-06T10:44:55.488Z,26.82
2022-09-06T10:47:33.465Z,26.98
2022-09-06T10:50:05.102Z,27.13
2022-09-06T10:52:40.177Z,27.21
2022-09-06T10:55:12.663Z,27.41
2022-09-06T11:00:37.076Z,27.30
2022-09-06T11:06:08.501Z,27.50
2022-09-06T11:11:23.254Z,27.62
2022-09-06T11:13:51.381Z,27.47
2022-09-06T11:16:23.713Z,27.40
2022-09-06T11:18:57.915Z,27.72
2022-09-06T11:21:48.071Z,27.80
2022-09-06T11:24:26.019Z,28.00
2022-09-06T11:27:02.806Z,27.91
2022-09-06T11:29:33.345Z,27.96
2022-09-06T11:32:18.647Z,27.96
2022-09-06T11:34:55.900Z,27.94
2022-09-06T11:37:27.335Z,27.86
2022-09-06T11:43:13.850Z,28.06
2022-09-06T11:45:45.452Z,28.16
2022-09-06T11:48:49.463Z,28.30
2022-09-06T11:51:36.761Z,28.51
2022-09-06T11:54:28.061Z,28.53
2022-09-06T11:57:02.174Z,28.65
2022-09-06T11:59:49.127Z,28.58
2022-09-06T12:02:36.347Z,28.54
2022-09-06T12:05:23.408Z,28.73
2022-09-06T12:08:34.145Z,28.73
2022-09-06T12:11:27.052Z,28.70
2022-09-06T12:14:03.092Z,28.77
2022-09-06T12:17:08.924Z,29.06
2022-09-06T12:19:44.289Z,29.12
2022-09-06T12:22:53.174Z,29.00
2022-09-06T12:25:54.706Z,29.09
2022-09-06T12:28:41.547Z,29.16
2022-09-06T12:31:31.957Z,29.38
2022-09-06T12:34:06.340Z,29.37
2022-09-06T12:36:34.682Z,29.30
2022-09-06T12:39:05.663Z,29.56
2022-09-06T12:41:43.255Z,29.54
2022-09-06T12:44:12.946Z,29.70
2022-09-06T12:46:48.674Z,29.25
2022-09-06T12:49:20.448Z,29.30
2022-09-06T12:51:48.749Z,29.38
2022-09-06T12:54:21.857Z,29.55
2022-09-06T12:56:50.418Z,29.41
2022-09-06T12:59:20.567Z,29.52
2022-09-06T13:01:57.319Z,29.66
2022-09-06T13:04:33.863Z,29.89
2022-09-06T13:07:04.193Z,29.94
2022-09-06T13:09:33.186Z,29.69
2022-09-06T13:12:07.847Z,29.92
2022-09-06T13:14:36.685Z,29.65
2022-09-06T13:17:06.102Z,29.91
2022-09-06T13:19:36.149Z,30.07
2022-09-06T13:22:07.431Z,29.96
2022-09-06T13:24:47.123Z,29.96
2022-09-06T13:27:26.601Z,30.20
2022-09-06T13:29:59.461Z,30.16
2022-09-06T13:32:29.488Z,30.13
2022-09-06T13:34:59.719Z,30.34
2022-09-06T13:37:29.663Z,30.16
2022-09-06T13:39:58.643Z,29.92
2022-09-06T13:42:29.453Z,29.93
2022-09-06T13:45:02.132Z,30.00
2022-09-06T13:47:31.946Z,30.46
2022-09-06T13:50:00.367Z,30.62
2022-09-06T13:52:28.383Z,30.64
2022-09-06T13:54:56.369Z,30.66
2022-09-06T13:57:24.801Z,30.57
2022-09-06T13:59:52.737Z,30.24
2022-09-06T14:02:20.909Z,30.07
2022-09-06T14:04:50.154Z,30.21
2022-09-06T14:07:18.081Z,30.21
2022-09-06T14:09:45.987Z,30.45
2022-09-06T14:12:13.928Z,32.54
2022-09-06T14:14:42.114Z,34.04
2022-09-06T14:17:10.283Z,35.41
2022-09-06T14:19:38.307Z,36.51
2022-09-06T14:22:08.310Z,37.89
2022-09-06T14:24:36.346Z,38.34
2022-09-06T14:27:05.488Z,38.59
2022-09-06T14:29:34.336Z,38.66
2022-09-06T14:32:02.759Z,38.60
2022-09-06T14:34:31.059Z,38.52
2022-09-06T14:36:58.874Z,38.94
2022-09-06T14:39:28.356Z,39.38
2022-09-06T14:41:56.364Z,39.94
2022-09-06T14:44:24.377Z,40.71
2022-09-06T14:46:53.435Z,42.75
2022-09-06T14:49:21.656Z,42.24
2022-09-06T14:51:49.670Z,39.54
2022-09-06T14:54:18.733Z,40.88
2022-09-06T14:56:48.239Z,41.06
2022-09-06T14:59:16.631Z,41.60
2022-09-06T15:01:44.779Z,39.11
2022-09-06T15:04:13.127Z,37.22
2022-09-06T15:06:47.202Z,37.85
2022-09-06T15:09:16.089Z,37.16
2022-09-06T15:11:46.252Z,35.26
2022-09-06T15:14:17.856Z,35.28
2022-09-06T15:16:46.044Z,35.35
2022-09-06T15:19:14.503Z,34.28
2022-09-06T15:21:45.527Z,33.75
2022-09-06T15:24:13.837Z,32.35
2022-09-06T15:26:43.218Z,31.47
2022-09-06T15:29:12.690Z,31.19
2022-09-06T15:31:43.126Z,30.73
2022-09-06T15:34:12.033Z,30.79
2022-09-06T15:36:40.066Z,30.80
2022-09-06T15:39:08.008Z,30.29
2022-09-06T15:41:39.625Z,30.01
2022-09-06T15:44:10.589Z,30.07
2022-09-06T15:46:45.848Z,29.91
2022-09-06T15:49:15.835Z,29.64
2022-09-06T15:51:44.613Z,29.55
2022-09-06T15:54:14.021Z,29.52
2022-09-06T15:56:41.511Z,29.45
2022-09-06T15:59:09.781Z,29.37
2022-09-06T16:01:38.076Z,29.28
2022-09-06T16:04:07.771Z,29.22
2022-09-06T16:06:38.499Z,29.11
2022-09-06T16:09:08.053Z,29.03
2022-09-06T16:11:36.946Z,28.87
2022-09-06T16:14:06.696Z,28.74
2022-09-06T16:16:35.138Z,28.72
2022-09-06T16:19:03.183Z,28.71
2022-09-06T16:21:34.377Z,28.68
2022-09-06T16:24:04.625Z,28.56
2022-09-06T16:26:34.335Z,28.52
2022-09-06T16:29:04.479Z,28.41
2022-09-06T16:31:39.176Z,28.44
2022-09-06T16:34:08.426Z,28.39
2022-09-06T16:36:38.697Z,28.30
2022-09-06T16:39:07.659Z,28.41
2022-09-06T16:41:40.370Z,28.33
2022-09-06T16:44:08.879Z,28.27
2022-09-06T16:46:39.961Z,28.15
2022-09-06T16:49:08.264Z,28.14
2022-09-06T16:51:37.887Z,27.96
2022-09-06T16:54:06.109Z,27.97
2022-09-06T16:56:35.928Z,28.03
2022-09-06T16:59:15.161Z,27.98
2022-09-06T17:01:44.456Z,27.86
2022-09-06T17:04:14.262Z,27.78
2022-09-06T17:09:31.205Z,27.01
2022-09-06T17:11:59.263Z,26.64
2022-09-06T17:14:28.043Z,26.32
2022-09-06T17:17:04.829Z,25.83
2022-09-06T17:19:36.850Z,25.39
2022-09-06T17:22:06.468Z,24.75
2022-09-06T17:24:34.739Z,23.79
2022-09-06T17:27:02.987Z,22.99
2022-09-06T17:29:31.281Z,22.39
2022-09-06T17:31:59.502Z,22.16
2022-09-06T17:34:28.116Z,21.73
2022-09-06T17:36:56.602Z,21.63
2022-09-06T17:39:29.023Z,21.46
2022-09-06T17:41:58.826Z,21.35
2022-09-06T17:44:27.794Z,21.10
2022-09-06T17:47:12.113Z,20.92
2022-09-06T17:49:41.218Z,20.89
2022-09-06T17:52:09.599Z,20.77
2022-09-06T17:54:39.092Z,20.77
2022-09-06T17:57:07.151Z,20.80
2022-09-06T17:59:36.105Z,20.64
2022-09-06T18:02:04.897Z,20.40
2022-09-06T18:04:32.916Z,20.42
2022-09-06T18:07:00.945Z,20.32
2022-09-06T18:09:29.131Z,20.20
2022-09-06T18:11:59.137Z,20.06
2022-09-06T18:14:28.553Z,19.89
2022-09-06T18:16:56.966Z,19.72
2022-09-06T18:19:25.659Z,19.67
2022-09-06T18:21:54.174Z,19.65
2022-09-06T18:24:22.239Z,19.60
2022-09-06T18:26:50.383Z,19.50
2022-09-06T18:29:20.802Z,19.49
2022-09-06T18:31:48.934Z,19.53
2022-09-06T18:34:17.160Z,19.43
2022-09-06T18:36:45.331Z,19.37
2022-09-06T18:39:13.474Z,19.45
2022-09-06T18:41:58.889Z,19.34
2022-09-06T18:44:32.270Z,19.42
2022-09-06T18:47:02.221Z,19.63
2022-09-06T18:49:32.345Z,19.63
2022-09-06T18:52:01.113Z,19.58
2022-09-06T18:54:29.478Z,19.64
2022-09-06T18:56:57.758Z,19.52
2022-09-06T18:59:26.229Z,19.43
2022-09-06T19:01:55.749Z,19.45
2022-09-06T19:04:24.155Z,19.48
2022-09-06T19:06:52.208Z,19.47
2022-09-06T19:09:20.386Z,19.53
2022-09-06T19:11:51.544Z,19.52
2022-09-06T19:14:19.864Z,19.50
2022-09-06T19:16:50.034Z,19.36
2022-09-06T19:19:19.625Z,19.59
2022-09-06T19:21:47.642Z,19.75
2022-09-06T19:24:16.279Z,19.71
2022-09-06T19:26:45.453Z,19.66
2022-09-06T19:29:15.561Z,19.64
2022-09-06T19:31:44.898Z,19.62
2022-09-06T19:34:15.726Z,19.58
2022-09-06T19:36:45.915Z,19.45
2022-09-06T19:39:15.891Z,19.43
2022-09-06T19:41:46.587Z,19.41
2022-09-06T19:44:15.358Z,19.35
2022-09-06T19:46:46.185Z,19.28
2022-09-06T19:49:15.310Z,19.27
2022-09-06T19:51:45.214Z,19.14
2022-09-06T19:54:15.570Z,19.30
2022-09-06T19:56:44.478Z,19.13
2022-09-06T19:59:13.449Z,19.24
2022-09-06T20:01:43.214Z,19.17
2022-09-06T20:04:13.008Z,19.25
2022-09-06T20:06:41.267Z,19.21
2022-09-06T20:09:10.622Z,19.20
2022-09-06T20:11:41.349Z,19.20
2022-09-06T20:14:09.876Z,19.17
2022-09-06T20:16:41.710Z,19.17
2022-09-06T20:19:12.979Z,19.10
2022-09-06T20:21:41.301Z,19.05
2022-09-06T20:24:09.570Z,18.95
2022-09-06T20:26:38.886Z,18.97
2022-09-06T20:29:07.955Z,18.89
2022-09-06T20:31:37.872Z,18.98
2022-09-06T20:34:07.394Z,18.89
2022-09-06T20:36:35.581Z,18.81
2022-09-06T20:39:04.893Z,18.77
2022-09-06T20:41:33.724Z,18.73
2022-09-06T20:44:03.684Z,18.63
2022-09-06T20:46:33.816Z,18.47
2022-09-06T20:49:04.749Z,18.49
2022-09-06T20:51:34.092Z,18.44
2022-09-06T20:54:02.759Z,18.42
2022-09-06T20:56:33.154Z,18.35
2022-09-06T20:59:04.585Z,18.31
2022-09-06T21:01:36.017Z,18.34
2022-09-06T21:04:05.994Z,18.13
2022-09-06T21:06:35.536Z,18.20
2022-09-06T21:09:04.801Z,18.24
2022-09-06T21:11:33.160Z,18.13
2022-09-06T21:14:01.259Z,18.19
2022-09-06T21:16:31.417Z,18.23
2022-09-06T21:19:01.413Z,18.28
2022-09-06T21:21:30.961Z,18.32
2022-09-06T21:24:00.598Z,18.38
2022-09-06T21:26:28.533Z,18.29
2022-09-06T21:28:56.447Z,18.34
2022-09-06T21:31:25.909Z,18.31
2022-09-06T21:33:56.874Z,18.22
2022-09-06T21:36:29.155Z,18.17
2022-09-06T21:38:59.129Z,18.37
2022-09-06T21:41:28.079Z,18.28
2022-09-06T21:43:58.126Z,18.24
2022-09-06T21:46:32.315Z,18.10
2022-09-06T21:49:04.346Z,18.03
2022-09-06T21:51:33.457Z,18.11
2022-09-06T21:54:04.796Z,18.05
2022-09-06T21:56:33.886Z,18.10
2022-09-06T21:59:01.910Z,18.05
2022-09-06T22:01:32.619Z,18.04
2022-09-06T22:04:02.281Z,18.04
2022-09-06T22:06:32.119Z,18.03
2022-09-06T22:09:01.801Z,17.97
2022-09-06T22:11:31.943Z,17.88
2022-09-06T22:14:00.877Z,17.92
2022-09-06T22:16:29.450Z,17.93
2022-09-06T22:21:45.467Z,17.89
2022-09-06T22:24:14.243Z,17.84
2022-09-06T22:26:43.061Z,17.74
2022-09-06T22:29:13.596Z,17.93
2022-09-06T22:31:41.903Z,17.93
2022-09-06T22:34:10.344Z,17.91
2022-09-06T22:36:39.002Z,17.86
2022-09-06T22:39:09.445Z,17.92
2022-09-06T22:41:37.831Z,17.90
2022-09-06T22:44:06.062Z,18.07
2022-09-06T22:46:34.388Z,18.16
2022-09-06T22:49:04.033Z,18.14
2022-09-06T22:51:32.062Z,18.10
2022-09-06T22:54:00.056Z,18.08
2022-09-06T22:56:29.358Z,18.13
2022-09-06T22:58:57.435Z,18.10
2022-09-06T23:01:25.932Z,18.10
2022-09-06T23:03:54.017Z,18.15
2022-09-06T23:06:22.374Z,18.12
2022-09-06T23:08:50.366Z,18.10
2022-09-06T23:11:19.662Z,17.93
2022-09-06T23:13:48.937Z,17.96
2022-09-06T23:16:19.626Z,18.01
2022-09-06T23:18:48.450Z,17.89
2022-09-06T23:21:19.423Z,17.90
2022-09-06T23:23:48.257Z,17.99
2022-09-06T23:26:17.809Z,17.96
2022-09-06T23:28:45.979Z,18.06
2022-09-06T23:31:16.757Z,18.13
2022-09-06T23:33:45.304Z,18.05
2022-09-06T23:36:14.689Z,18.06
2022-09-06T23:38:43.706Z,18.03
2022-09-06T23:41:12.234Z,17.97
2022-09-06T23:43:41.653Z,17.91
2022-09-06T23:46:11.285Z,17.84
2022-09-06T23:48:40.965Z,17.81
2022-09-06T23:51:09.152Z,17.73
2022-09-06T23:53:37.345Z,17.86
2022-09-06T23:56:05.769Z,17.91
2022-09-06T23:58:33.837Z,17.97
